Time;durP1;ratioP1;P1;durP2;ratioP2;P2;SDS_P1;SDS_P2;PMS_P1;PMS_P2;Temp;Humidity;BMP_temperature;BMP_pressure;BME280_temperature;BME280_humidity;BME280_pressure;Samples;Min_cycle;Max_cycle;Signal;HPM_P1;HPM_P2
2021/03/23 00:01:46;;;;;;;8.27;4.30;;;;;;;;;;5102983;28;20236;-73
2021/03/23 00:04:14;;;;;;;7.45;4.50;;;;;;;;;;5092100;28;20204;-75
2021/03/23 00:06:40;;;;;;;8.48;4.80;;;;;;;;;;5095571;28;20206;-75
2021/03/23 00:09:07;;;;;;;10.35;6.13;;;;;;;;;;5098791;28;20176;-73
2021/03/23 00:11:35;;;;;;;7.05;5.43;;;;;;;;;;5095582;28;20201;-75
2021/03/23 00:14:02;;;;;;;6.05;5.03;;;;;;;;;;5105635;28;20184;-74
2021/03/23 00:16:29;;;;;;;8.27;5.93;;;;;;;;;;5103287;28;20240;-76
2021/03/23 00:18:55;;;;;;;10.57;5.90;;;;;;;;;;5106510;28;20178;-73
2021/03/23 00:21:22;;;;;;;8.95;6.10;;;;;;;;;;5132556;28;20170;-74
2021/03/23 00:23:48;;;;;;;7.32;5.00;;;;;;;;;;5135721;28;20179;-73
2021/03/23 00:26:15;;;;;;;12.15;5.65;;;;;;;;;;5102930;28;20294;-71
2021/03/23 00:28:46;;;;;;;8.00;5.20;;;;;;;;;;5096244;28;20662;-72
2021/03/23 00:31:13;;;;;;;7.95;5.40;;;;;;;;;;5096500;28;20155;-74
2021/03/23 00:33:39;;;;;;;9.02;5.20;;;;;;;;;;5095941;28;20163;-75
2021/03/23 00:36:05;;;;;;;9.43;6.20;;;;;;;;;;5096021;28;20175;-74
2021/03/23 00:38:33;;;;;;;10.40;6.60;;;;;;;;;;5096155;28;20172;-76
2021/03/23 00:40:59;;;;;;;8.30;6.20;;;;;;;;;;5096647;28;20509;-73
2021/03/23 00:43:25;;;;;;;7.30;5.07;;;;;;;;;;5096890;28;20171;-72
2021/03/23 00:45:52;;;;;;;8.20;5.70;;;;;;;;;;5127990;28;20205;-71
2021/03/23 00:48:19;;;;;;;8.77;5.78;;;;;;;;;;5107919;28;20185;-73
2021/03/23 00:50:45;;;;;;;7.63;5.15;;;;;;;;;;5105963;28;20147;-74
2021/03/23 00:53:11;;;;;;;6.95;5.07;;;;;;;;;;5118343;28;20178;-72
2021/03/23 00:55:37;;;;;;;5.65;4.20;;;;;;;;;;5118907;28;20215;-71
2021/03/23 00:58:03;;;;;;;6.18;4.30;;;;;;;;;;5113580;28;20237;-72
2021/03/23 01:00:29;;;;;;;8.55;4.20;;;;;;;;;;5131979;28;20175;-71
2021/03/23 01:02:56;;;;;;;5.13;3.58;;;;;;;;;;5116989;28;20183;-72
2021/03/23 01:05:23;;;;;;;5.57;3.90;;;;;;;;;;5105545;28;20261;-73
2021/03/23 01:07:49;;;;;;;5.43;3.88;;;;;;;;;;5097026;28;20240;-74
2021/03/23 01:10:16;;;;;;;6.93;3.88;;;;;;;;;;5096717;28;20213;-72
2021/03/23 01:12:43;;;;;;;5.30;3.85;;;;;;;;;;5095896;28;20171;-73
2021/03/23 01:15:11;;;;;;;5.70;3.65;;;;;;;;;;5096050;28;20195;-73
2021/03/23 01:17:37;;;;;;;5.47;3.63;;;;;;;;;;5094768;28;20184;-74
2021/03/23 01:20:08;;;;;;;7.28;4.28;;;;;;;;;;5095893;28;20172;-73
2021/03/23 01:22:34;;;;;;;7.57;3.75;;;;;;;;;;5110460;28;20171;-73
2021/03/23 01:25:00;;;;;;;9.25;3.70;;;;;;;;;;5105306;28;20198;-75
2021/03/23 01:27:26;;;;;;;7.50;4.13;;;;;;;;;;5114070;28;20187;-73
2021/03/23 01:29:52;;;;;;;6.90;3.90;;;;;;;;;;5102922;28;20179;-74
2021/03/23 01:32:18;;;;;;;5.85;4.10;;;;;;;;;;5094657;28;20184;-75
2021/03/23 01:34:45;;;;;;;13.63;4.18;;;;;;;;;;5094716;28;20188;-74
2021/03/23 01:37:11;;;;;;;4.70;3.45;;;;;;;;;;5095097;28;20168;-75
2021/03/23 01:39:37;;;;;;;7.13;3.30;;;;;;;;;;5098253;28;20577;-72
2021/03/23 01:42:04;;;;;;;6.00;3.17;;;;;;;;;;5109378;28;20206;-74
2021/03/23 01:44:30;;;;;;;4.07;3.47;;;;;;;;;;5113826;28;20199;-73
2021/03/23 01:46:56;;;;;;;6.45;3.30;;;;;;;;;;5103372;28;20199;-74
2021/03/23 01:49:24;;;;;;;7.70;3.47;;;;;;;;;;5094651;28;20643;-74
2021/03/23 01:51:51;;;;;;;6.15;3.42;;;;;;;;;;5109500;28;20183;-75
2021/03/23 01:54:22;;;;;;;6.00;3.63;;;;;;;;;;5106882;28;20199;-73
2021/03/23 01:56:50;;;;;;;7.88;3.42;;;;;;;;;;5109986;28;20532;-76
2021/03/23 01:59:16;;;;;;;7.03;3.00;;;;;;;;;;5105244;28;20198;-71
2021/03/23 02:01:42;;;;;;;9.00;3.35;;;;;;;;;;5104751;28;20172;-73
2021/03/23 02:04:08;;;;;;;3.63;2.53;;;;;;;;;;5114465;28;20585;-74
2021/03/23 02:06:37;;;;;;;7.80;3.08;;;;;;;;;;5094136;28;20568;-72
2021/03/23 02:09:04;;;;;;;5.85;2.80;;;;;;;;;;5094080;28;20254;-73
2021/03/23 02:11:33;;;;;;;5.53;3.45;;;;;;;;;;5092711;28;20222;-75
2021/03/23 02:13:59;;;;;;;5.38;3.20;;;;;;;;;;5093325;28;20195;-73
2021/03/23 02:16:25;;;;;;;7.22;3.20;;;;;;;;;;5102767;28;20524;-73
2021/03/23 02:18:51;;;;;;;6.13;3.13;;;;;;;;;;5094135;28;20549;-71
2021/03/23 02:21:19;;;;;;;3.33;2.72;;;;;;;;;;5093777;28;20221;-71
2021/03/23 02:23:47;;;;;;;8.15;3.55;;;;;;;;;;5093577;28;20179;-73
2021/03/23 02:26:18;;;;;;;4.75;3.40;;;;;;;;;;5093526;28;20191;-76
2021/03/23 02:28:57;;;;;;;6.18;2.65;;;;;;;;;;5093989;28;20175;-73
2021/03/23 02:31:40;;;;;;;5.43;2.90;;;;;;;;;;5094152;28;20515;-72
2021/03/23 02:34:08;;;;;;;3.70;2.60;;;;;;;;;;5107902;28;20187;-71
2021/03/23 02:36:35;;;;;;;3.33;2.47;;;;;;;;;;5093441;28;20171;-72
2021/03/23 02:39:01;;;;;;;3.72;2.60;;;;;;;;;;5095142;28;20182;-73
2021/03/23 02:41:27;;;;;;;4.60;2.42;;;;;;;;;;5103860;27;20171;-73
2021/03/23 02:43:53;;;;;;;3.83;2.25;;;;;;;;;;5096403;28;20175;-75
2021/03/23 02:46:20;;;;;;;4.20;2.50;;;;;;;;;;5107473;28;20231;-72
2021/03/23 02:48:46;;;;;;;10.98;3.33;;;;;;;;;;5093642;28;20528;-73
2021/03/23 02:51:14;;;;;;;4.15;3.08;;;;;;;;;;5098957;28;20168;-73
2021/03/23 02:53:40;;;;;;;3.45;2.53;;;;;;;;;;5104872;28;20171;-72
2021/03/23 02:56:06;;;;;;;4.47;2.20;;;;;;;;;;5093422;28;20710;-73
2021/03/23 02:58:32;;;;;;;3.60;2.70;;;;;;;;;;5097527;28;20182;-73
2021/03/23 03:00:58;;;;;;;4.85;2.75;;;;;;;;;;5102571;28;20186;-75
2021/03/23 03:03:24;;;;;;;4.60;2.40;;;;;;;;;;5092644;28;20548;-75
2021/03/23 03:05:50;;;;;;;5.22;2.90;;;;;;;;;;5092988;28;20199;-73
2021/03/23 03:08:16;;;;;;;4.97;2.55;;;;;;;;;;5111390;28;20182;-73
2021/03/23 03:10:42;;;;;;;5.40;2.97;;;;;;;;;;5113551;28;20178;-73
2021/03/23 03:13:08;;;;;;;5.10;2.42;;;;;;;;;;5093094;28;20167;-71
2021/03/23 03:15:34;;;;;;;4.43;2.97;;;;;;;;;;5093116;28;20195;-74
2021/03/23 03:18:00;;;;;;;6.18;2.85;;;;;;;;;;5092972;28;20175;-74
2021/03/23 03:20:26;;;;;;;4.60;2.97;;;;;;;;;;5091678;28;20521;-74
2021/03/23 03:22:53;;;;;;;5.05;3.20;;;;;;;;;;5097159;28;20565;-73
2021/03/23 03:25:19;;;;;;;3.65;2.20;;;;;;;;;;5105622;28;20218;-75
2021/03/23 03:27:46;;;;;;;4.05;2.60;;;;;;;;;;5106365;28;20240;-74
2021/03/23 03:30:19;;;;;;;4.88;3.20;;;;;;;;;;5092772;28;20172;-75
2021/03/23 03:32:45;;;;;;;6.28;2.47;;;;;;;;;;5105082;28;20269;-73
2021/03/23 03:35:11;;;;;;;5.07;2.72;;;;;;;;;;5092510;28;20639;-72
2021/03/23 03:37:37;;;;;;;5.60;2.70;;;;;;;;;;5093064;28;20183;-75
2021/03/23 03:40:06;;;;;;;4.25;2.90;;;;;;;;;;5093026;28;20211;-74
2021/03/23 03:42:32;;;;;;;4.00;2.47;;;;;;;;;;5092372;28;20229;-75
2021/03/23 03:44:58;;;;;;;3.95;2.78;;;;;;;;;;5092591;28;20199;-74
2021/03/23 03:47:24;;;;;;;3.60;2.67;;;;;;;;;;5093570;28;20168;-73
2021/03/23 03:49:50;;;;;;;8.18;3.00;;;;;;;;;;5096914;28;20175;-73
2021/03/23 03:52:16;;;;;;;5.07;2.80;;;;;;;;;;5096579;28;20176;-72
2021/03/23 03:54:42;;;;;;;6.63;3.38;;;;;;;;;;5098491;28;20203;-73
2021/03/23 03:57:08;;;;;;;5.18;3.15;;;;;;;;;;5096472;28;20513;-73
2021/03/23 03:59:34;;;;;;;5.65;3.38;;;;;;;;;;5103318;28;20535;-74
2021/03/23 04:02:00;;;;;;;5.68;3.10;;;;;;;;;;5107239;28;20185;-73
2021/03/23 04:04:26;;;;;;;5.30;3.05;;;;;;;;;;5097851;28;20324;-73
2021/03/23 04:06:52;;;;;;;4.05;3.22;;;;;;;;;;5100829;28;20298;-72
2021/03/23 04:09:18;;;;;;;5.30;2.87;;;;;;;;;;5096475;28;20171;-74
2021/03/23 04:11:44;;;;;;;5.90;3.45;;;;;;;;;;5101992;28;20769;-75
2021/03/23 04:14:10;;;;;;;4.65;3.05;;;;;;;;;;5103969;28;20191;-74
2021/03/23 04:16:36;;;;;;;3.78;3.03;;;;;;;;;;5096343;28;20220;-73
2021/03/23 04:19:03;;;;;;;6.50;3.25;;;;;;;;;;5095947;28;20743;-73
2021/03/23 04:21:29;;;;;;;4.50;3.00;;;;;;;;;;5098813;28;20520;-72
2021/03/23 04:23:55;;;;;;;5.55;3.40;;;;;;;;;;5108261;28;20182;-74
2021/03/23 04:26:21;;;;;;;7.70;3.65;;;;;;;;;;5097179;28;20290;-76
2021/03/23 04:28:47;;;;;;;4.95;3.08;;;;;;;;;;5108330;28;20233;-73
2021/03/23 04:31:28;;;;;;;6.60;3.30;;;;;;;;;;5098190;28;20179;-73
2021/03/23 04:33:54;;;;;;;5.47;3.30;;;;;;;;;;5095094;28;20178;-75
2021/03/23 04:36:20;;;;;;;3.88;3.08;;;;;;;;;;5095945;28;20171;-72
2021/03/23 04:38:46;;;;;;;6.43;3.50;;;;;;;;;;5096261;28;20186;-73
2021/03/23 04:41:13;;;;;;;5.80;3.45;;;;;;;;;;5095745;28;20171;-75
2021/03/23 04:43:40;;;;;;;4.43;3.35;;;;;;;;;;5096070;28;20658;-74
2021/03/23 04:46:06;;;;;;;4.55;3.28;;;;;;;;;;5103222;28;20199;-74
2021/03/23 04:48:32;;;;;;;7.85;3.38;;;;;;;;;;5095650;28;20635;-71
2021/03/23 04:50:59;;;;;;;6.65;4.45;;;;;;;;;;5095676;28;20171;-73
2021/03/23 04:53:26;;;;;;;6.35;3.97;;;;;;;;;;5108907;28;20265;-74
2021/03/23 04:55:53;;;;;;;6.20;3.38;;;;;;;;;;5095417;28;20202;-73
2021/03/23 04:58:19;;;;;;;6.75;4.00;;;;;;;;;;5091047;28;20188;-73
2021/03/23 05:00:45;;;;;;;6.25;3.95;;;;;;;;;;5110849;28;20266;-73
2021/03/23 05:03:17;;;;;;;6.25;4.13;;;;;;;;;;5094671;28;20172;-74
2021/03/23 05:05:43;;;;;;;11.77;4.90;;;;;;;;;;5103216;28;20207;-75
2021/03/23 05:08:10;;;;;;;5.70;4.05;;;;;;;;;;5115515;28;20179;-73
2021/03/23 05:10:36;;;;;;;5.53;3.95;;;;;;;;;;5115752;28;20611;-75
2021/03/23 05:13:02;;;;;;;8.20;3.90;;;;;;;;;;5096236;28;20210;-75
2021/03/23 05:15:29;;;;;;;5.82;3.53;;;;;;;;;;5094756;28;20288;-75
2021/03/23 05:17:55;;;;;;;6.32;3.72;;;;;;;;;;5097404;28;20187;-73
2021/03/23 05:20:21;;;;;;;7.20;4.40;;;;;;;;;;5105462;28;20175;-73
2021/03/23 05:22:47;;;;;;;5.78;4.18;;;;;;;;;;5094303;28;20221;-75
2021/03/23 05:25:14;;;;;;;8.02;3.95;;;;;;;;;;5094594;28;20195;-73
2021/03/23 05:27:40;;;;;;;5.82;3.53;;;;;;;;;;5097061;28;20179;-73
2021/03/23 05:30:07;;;;;;;6.90;3.83;;;;;;;;;;5105143;28;20175;-73
2021/03/23 05:32:33;;;;;;;8.00;4.50;;;;;;;;;;5106512;28;20197;-72
2021/03/23 05:34:59;;;;;;;6.65;4.18;;;;;;;;;;5093948;28;20188;-73
2021/03/23 05:37:25;;;;;;;5.57;4.78;;;;;;;;;;5094759;28;20233;-71
2021/03/23 05:39:51;;;;;;;5.78;4.78;;;;;;;;;;5094826;28;20225;-72
2021/03/23 05:42:25;;;;;;;7.78;4.43;;;;;;;;;;5094765;28;20211;-76
2021/03/23 05:45:02;;;;;;;8.07;5.10;;;;;;;;;;5094380;28;20203;-74
2021/03/23 05:47:31;;;;;;;6.72;4.70;;;;;;;;;;5099749;28;20170;-72
2021/03/23 05:50:05;;;;;;;7.43;4.40;;;;;;;;;;5106316;28;20217;-72
2021/03/23 05:52:31;;;;;;;8.32;4.85;;;;;;;;;;5086515;28;20539;-74
2021/03/23 05:55:03;;;;;;;6.90;3.97;;;;;;;;;;5093999;28;20230;-74
2021/03/23 05:57:33;;;;;;;6.57;4.85;;;;;;;;;;5093593;28;20175;-74
2021/03/23 06:00:11;;;;;;;5.60;4.53;;;;;;;;;;5090908;28;20175;-75
2021/03/23 06:02:43;;;;;;;6.97;4.57;;;;;;;;;;5089956;28;20258;-74
2021/03/23 06:05:10;;;;;;;7.97;4.90;;;;;;;;;;5093241;28;20196;-74
2021/03/23 06:07:38;;;;;;;10.70;5.13;;;;;;;;;;5093882;28;20178;-74
2021/03/23 06:10:14;;;;;;;7.60;4.88;;;;;;;;;;5093420;28;20168;-72
2021/03/23 06:12:43;;;;;;;6.68;4.88;;;;;;;;;;5093802;28;20175;-72
2021/03/23 06:15:13;;;;;;;8.88;4.88;;;;;;;;;;5093667;28;20579;-72
2021/03/23 06:17:58;;;;;;;9.27;5.50;;;;;;;;;;5100465;28;20175;-75
2021/03/23 06:20:43;;;;;;;12.68;5.70;;;;;;;;;;5093348;28;20229;-75
2021/03/23 06:23:33;;;;;;;9.95;5.65;;;;;;;;;;5093663;28;20686;-72
2021/03/23 06:26:04;;;;;;;10.25;6.03;;;;;;;;;;5092698;28;20222;-73
2021/03/23 06:28:33;;;;;;;8.73;5.80;;;;;;;;;;5093570;28;20182;-74
2021/03/23 06:31:08;;;;;;;9.05;6.60;;;;;;;;;;5092244;28;20176;-74
2021/03/23 06:33:34;;;;;;;16.92;7.25;;;;;;;;;;5093691;28;20556;-74
2021/03/23 06:36:10;;;;;;;14.57;7.00;;;;;;;;;;5093660;28;20280;-74
2021/03/23 06:38:38;;;;;;;11.40;6.32;;;;;;;;;;5106968;28;20520;-73
2021/03/23 06:41:25;;;;;;;8.40;6.07;;;;;;;;;;5094197;28;20581;-74
2021/03/23 06:43:51;;;;;;;10.23;6.32;;;;;;;;;;5091930;28;20648;-72
2021/03/23 06:46:24;;;;;;;8.60;6.30;;;;;;;;;;5093109;28;20248;-74
2021/03/23 06:49:09;;;;;;;12.20;6.72;;;;;;;;;;5097471;28;20383;-74
2021/03/23 06:51:36;;;;;;;14.02;7.43;;;;;;;;;;5100489;28;20285;-74
2021/03/23 06:54:18;;;;;;;9.65;6.80;;;;;;;;;;5093128;28;20262;-75
2021/03/23 06:56:44;;;;;;;9.80;7.00;;;;;;;;;;5093422;28;20202;-73
2021/03/23 06:59:15;;;;;;;11.73;8.07;;;;;;;;;;5093413;28;20175;-73
2021/03/23 07:01:48;;;;;;;11.35;7.53;;;;;;;;;;5102371;28;20711;-74
2021/03/23 07:04:25;;;;;;;10.95;7.78;;;;;;;;;;5092698;28;20195;-72
2021/03/23 07:07:03;;;;;;;23.00;8.48;;;;;;;;;;5093235;28;20233;-73
2021/03/23 07:09:33;;;;;;;13.23;8.65;;;;;;;;;;5090422;28;20175;-75
2021/03/23 07:12:04;;;;;;;13.13;6.50;;;;;;;;;;5091704;28;20175;-73
2021/03/23 07:14:38;;;;;;;16.77;9.65;;;;;;;;;;5092941;28;20191;-74
2021/03/23 07:17:24;;;;;;;14.65;9.27;;;;;;;;;;5093003;28;20345;-73
2021/03/23 07:19:50;;;;;;;13.18;8.80;;;;;;;;;;5080683;28;20598;-74
2021/03/23 07:22:19;;;;;;;17.35;10.10;;;;;;;;;;5089507;28;20182;-72
2021/03/23 07:24:53;;;;;;;14.38;9.40;;;;;;;;;;5097755;28;20206;-74
2021/03/23 07:27:21;;;;;;;15.05;8.57;;;;;;;;;;5097132;28;20231;-73
2021/03/23 07:29:47;;;;;;;20.08;9.68;;;;;;;;;;5093378;28;20187;-75
2021/03/23 07:32:16;;;;;;;18.95;9.18;;;;;;;;;;5094715;28;20171;-71
2021/03/23 07:35:01;;;;;;;14.10;9.63;;;;;;;;;;5093124;28;20676;-73
2021/03/23 07:37:27;;;;;;;17.08;9.70;;;;;;;;;;5097013;28;20186;-73
2021/03/23 07:39:55;;;;;;;14.97;10.53;;;;;;;;;;5093488;28;20187;-72
2021/03/23 07:42:26;;;;;;;19.08;11.65;;;;;;;;;;5099446;28;20467;-73
2021/03/23 07:44:55;;;;;;;15.65;10.13;;;;;;;;;;5113021;28;20199;-76
2021/03/23 07:47:34;;;;;;;15.00;10.90;;;;;;;;;;5105665;28;20198;-73
2021/03/23 07:50:07;;;;;;;18.35;10.80;;;;;;;;;;5096682;28;20661;-74
2021/03/23 07:52:43;;;;;;;23.50;10.25;;;;;;;;;;5092672;28;20564;-73
2021/03/23 07:55:18;;;;;;;20.25;11.48;;;;;;;;;;5092227;28;20289;-75
2021/03/23 07:57:50;;;;;;;19.27;12.35;;;;;;;;;;5092949;28;20162;-73
2021/03/23 08:00:19;;;;;;;21.98;11.60;;;;;;;;;;5092626;28;20297;-75
2021/03/23 08:03:04;;;;;;;17.23;11.13;;;;;;;;;;5092559;28;20175;-73
2021/03/23 08:05:33;;;;;;;19.17;10.90;;;;;;;;;;5073735;28;20211;-78
2021/03/23 08:08:18;;;;;;;22.77;11.50;;;;;;;;;;5094921;28;20219;-74
2021/03/23 08:10:55;;;;;;;17.55;10.90;;;;;;;;;;5100900;28;20183;-75
2021/03/23 08:13:28;;;;;;;19.00;11.00;;;;;;;;;;5092324;28;20647;-74
2021/03/23 08:15:57;;;;;;;20.88;12.40;;;;;;;;;;5086362;28;20248;-76
2021/03/23 08:18:45;;;;;;;18.65;11.45;;;;;;;;;;5092320;28;20179;-72
2021/03/23 08:21:11;;;;;;;25.58;11.57;;;;;;;;;;5096678;28;20239;-72
2021/03/23 08:23:56;;;;;;;16.87;13.00;;;;;;;;;;5101541;28;20175;-74
2021/03/23 08:26:45;;;;;;;24.95;11.50;;;;;;;;;;5091941;28;20471;-76
2021/03/23 08:29:20;;;;;;;18.35;11.40;;;;;;;;;;5086093;28;20248;-74
2021/03/23 08:31:58;;;;;;;18.90;12.15;;;;;;;;;;5092246;28;20179;-74
2021/03/23 08:34:43;;;;;;;20.25;11.32;;;;;;;;;;5090760;28;20227;-73
2021/03/23 08:37:27;;;;;;;20.10;11.70;;;;;;;;;;5087737;28;20211;-76
2021/03/23 08:40:07;;;;;;;19.67;12.38;;;;;;;;;;5091903;28;20187;-72
2021/03/23 08:42:33;;;;;;;26.77;12.15;;;;;;;;;;5091915;28;20536;-75
2021/03/23 08:45:07;;;;;;;22.13;12.23;;;;;;;;;;5090839;28;20203;-75
2021/03/23 08:47:55;;;;;;;20.17;11.73;;;;;;;;;;5084152;28;20186;-73
2021/03/23 08:50:24;;;;;;;22.42;12.00;;;;;;;;;;5096423;28;20257;-74
2021/03/23 08:52:54;;;;;;;20.85;10.93;;;;;;;;;;5110622;28;20262;-73
2021/03/23 08:55:29;;;;;;;21.10;12.23;;;;;;;;;;5097563;28;20575;-74
2021/03/23 08:58:06;;;;;;;23.90;13.43;;;;;;;;;;5108336;28;20178;-74
2021/03/23 09:00:38;;;;;;;21.48;12.73;;;;;;;;;;5091723;28;20183;-74
2021/03/23 09:03:08;;;;;;;19.10;13.52;;;;;;;;;;5094406;28;20218;-73
2021/03/23 09:05:37;;;;;;;22.83;13.02;;;;;;;;;;5091702;28;20552;-73
2021/03/23 09:08:17;;;;;;;21.35;13.20;;;;;;;;;;5091870;28;20205;-74
2021/03/23 09:10:59;;;;;;;19.63;11.90;;;;;;;;;;5106620;28;20269;-72
2021/03/23 09:13:45;;;;;;;19.88;11.50;;;;;;;;;;5101309;27;20216;-74
2021/03/23 09:16:11;;;;;;;19.38;12.88;;;;;;;;;;5094994;28;20185;-72
2021/03/23 09:18:38;;;;;;;22.73;13.43;;;;;;;;;;5104367;28;20667;-76
2021/03/23 09:21:07;;;;;;;24.35;13.65;;;;;;;;;;5092606;28;20462;-73
2021/03/23 09:23:39;;;;;;;21.33;14.52;;;;;;;;;;5085659;28;20669;-75
2021/03/23 09:26:25;;;;;;;22.50;13.68;;;;;;;;;;5090835;28;20661;-74
2021/03/23 09:28:52;;;;;;;21.70;13.80;;;;;;;;;;5094432;28;20342;-75
2021/03/23 09:31:31;;;;;;;23.75;16.55;;;;;;;;;;5091052;28;20176;-72
2021/03/23 09:33:59;;;;;;;22.75;14.82;;;;;;;;;;5090115;28;20182;-75
2021/03/23 09:36:37;;;;;;;31.00;15.60;;;;;;;;;;5090851;28;20656;-73
2021/03/23 09:39:15;;;;;;;27.85;14.88;;;;;;;;;;5089192;28;20179;-75
2021/03/23 09:41:43;;;;;;;28.60;16.65;;;;;;;;;;5096419;28;20672;-72
2021/03/23 09:44:18;;;;;;;27.30;15.95;;;;;;;;;;5103739;28;20194;-74
2021/03/23 09:46:45;;;;;;;24.00;14.98;;;;;;;;;;5091438;28;20202;-74
2021/03/23 09:49:22;;;;;;;24.85;15.70;;;;;;;;;;5090564;28;20549;-73
2021/03/23 09:51:50;;;;;;;22.67;15.90;;;;;;;;;;5089577;28;20258;-73
2021/03/23 09:54:22;;;;;;;23.52;15.75;;;;;;;;;;5093789;28;20221;-74
2021/03/23 09:56:49;;;;;;;27.27;18.48;;;;;;;;;;5111132;28;20248;-75
2021/03/23 09:59:16;;;;;;;26.30;16.77;;;;;;;;;;5104898;28;20232;-72
2021/03/23 10:01:53;;;;;;;27.58;16.92;;;;;;;;;;5111448;28;20186;-75
2021/03/23 10:04:30;;;;;;;24.73;16.00;;;;;;;;;;5099650;28;20206;-74
2021/03/23 10:06:57;;;;;;;30.23;17.73;;;;;;;;;;5090270;28;20259;-73
2021/03/23 10:09:25;;;;;;;27.42;17.20;;;;;;;;;;5096558;28;20185;-74
2021/03/23 10:11:51;;;;;;;24.73;16.60;;;;;;;;;;5096178;28;20163;-75
2021/03/23 10:14:20;;;;;;;26.70;17.65;;;;;;;;;;5093631;28;20206;-75
2021/03/23 10:16:46;;;;;;;24.95;17.52;;;;;;;;;;5091068;28;20277;-77
2021/03/23 10:19:23;;;;;;;25.45;17.25;;;;;;;;;;5111047;28;20190;-74
2021/03/23 10:21:51;;;;;;;26.90;17.20;;;;;;;;;;5099789;28;20179;-77
2021/03/23 10:24:18;;;;;;;27.00;16.10;;;;;;;;;;5100498;28;20199;-72
2021/03/23 10:26:46;;;;;;;28.27;17.63;;;;;;;;;;5089168;28;20223;-75
2021/03/23 10:29:24;;;;;;;26.77;18.40;;;;;;;;;;5089421;28;20175;-74
2021/03/23 10:31:52;;;;;;;27.60;17.02;;;;;;;;;;5101291;28;20175;-75
2021/03/23 10:34:23;;;;;;;26.45;16.50;;;;;;;;;;5092651;28;20191;-76
2021/03/23 10:36:56;;;;;;;25.50;16.92;;;;;;;;;;5090501;28;20181;-72
2021/03/23 10:39:45;;;;;;;24.85;16.85;;;;;;;;;;5090258;28;20198;-76
2021/03/23 10:42:23;;;;;;;26.60;17.42;;;;;;;;;;5101935;28;20232;-72
2021/03/23 10:44:50;;;;;;;29.92;18.05;;;;;;;;;;5109037;28;20641;-75
2021/03/23 10:47:38;;;;;;;27.27;17.15;;;;;;;;;;5091818;28;20714;-77
2021/03/23 10:50:14;;;;;;;26.25;16.92;;;;;;;;;;5090651;28;20190;-77
2021/03/23 10:52:40;;;;;;;25.40;16.98;;;;;;;;;;5092154;28;20639;-74
2021/03/23 10:55:14;;;;;;;25.00;17.05;;;;;;;;;;5094324;28;20200;-74
2021/03/23 10:57:40;;;;;;;26.38;17.73;;;;;;;;;;5109872;28;20177;-73
2021/03/23 11:00:18;;;;;;;24.80;17.67;;;;;;;;;;5091052;28;20613;-75
2021/03/23 11:02:44;;;;;;;24.90;17.00;;;;;;;;;;5090325;28;20542;-74
2021/03/23 11:05:13;;;;;;;30.30;16.95;;;;;;;;;;5089096;28;20214;-74
2021/03/23 11:07:54;;;;;;;29.25;17.95;;;;;;;;;;5102248;28;20288;-74
2021/03/23 11:10:21;;;;;;;32.50;17.42;;;;;;;;;;5091025;28;20207;-76
2021/03/23 11:12:47;;;;;;;27.00;17.85;;;;;;;;;;5089749;28;20176;-74
2021/03/23 11:15:14;;;;;;;27.42;18.45;;;;;;;;;;5098226;28;20226;-73
2021/03/23 11:17:47;;;;;;;27.63;17.33;;;;;;;;;;5097695;28;20642;-73
2021/03/23 11:20:20;;;;;;;26.83;17.40;;;;;;;;;;5089483;28;20229;-75
2021/03/23 11:22:47;;;;;;;24.85;17.33;;;;;;;;;;5092325;28;20178;-73
2021/03/23 11:25:18;;;;;;;23.73;17.17;;;;;;;;;;5107492;28;20186;-75
2021/03/23 11:27:44;;;;;;;24.92;17.50;;;;;;;;;;5089820;28;20218;-74
2021/03/23 11:30:10;;;;;;;26.58;18.20;;;;;;;;;;5089018;28;20195;-75
2021/03/23 11:32:36;;;;;;;25.83;18.20;;;;;;;;;;5089152;28;20179;-74
2021/03/23 11:35:02;;;;;;;25.98;18.70;;;;;;;;;;5088948;28;20253;-76
2021/03/23 11:37:28;;;;;;;25.23;17.70;;;;;;;;;;5089434;28;20187;-74
2021/03/23 11:39:54;;;;;;;31.63;18.90;;;;;;;;;;5089522;28;20180;-74
2021/03/23 11:42:26;;;;;;;26.88;18.27;;;;;;;;;;5090638;28;20176;-73
2021/03/23 11:44:54;;;;;;;26.75;17.92;;;;;;;;;;5095028;28;20203;-73
2021/03/23 11:47:25;;;;;;;27.08;18.73;;;;;;;;;;5089113;28;20618;-75
2021/03/23 11:50:10;;;;;;;26.20;18.38;;;;;;;;;;5100357;28;20320;-73
2021/03/23 11:52:36;;;;;;;29.70;19.15;;;;;;;;;;5090956;28;20214;-74
2021/03/23 11:55:04;;;;;;;33.47;19.85;;;;;;;;;;5088458;28;20210;-74
2021/03/23 11:57:30;;;;;;;30.80;17.92;;;;;;;;;;5088735;28;20209;-74
2021/03/23 11:59:56;;;;;;;29.92;19.02;;;;;;;;;;5085997;28;20228;-73
2021/03/23 12:02:22;;;;;;;25.52;18.80;;;;;;;;;;5089397;28;20194;-74
2021/03/23 12:04:48;;;;;;;28.85;18.65;;;;;;;;;;5087681;28;20702;-73
2021/03/23 12:07:31;;;;;;;28.08;18.02;;;;;;;;;;5109283;28;20229;-74
2021/03/23 12:09:59;;;;;;;27.38;17.80;;;;;;;;;;5108289;28;20217;-72
2021/03/23 12:12:25;;;;;;;28.10;18.27;;;;;;;;;;5080678;28;20236;-74
2021/03/23 12:15:12;;;;;;;33.47;19.03;;;;;;;;;;5097841;28;20266;-73
2021/03/23 12:17:39;;;;;;;25.92;19.10;;;;;;;;;;5100610;28;20413;-75
2021/03/23 12:20:12;;;;;;;28.02;18.92;;;;;;;;;;5099096;28;20184;-74
2021/03/23 12:22:38;;;;;;;30.25;19.40;;;;;;;;;;5092240;28;20256;-74
2021/03/23 12:25:06;;;;;;;27.67;19.38;;;;;;;;;;5092802;28;20203;-75
2021/03/23 12:27:32;;;;;;;27.15;17.65;;;;;;;;;;5110581;28;20241;-75
2021/03/23 12:30:00;;;;;;;31.52;20.05;;;;;;;;;;5088123;28;20167;-74
2021/03/23 12:32:26;;;;;;;28.17;20.10;;;;;;;;;;5111014;28;20190;-75
2021/03/23 12:34:53;;;;;;;34.00;20.52;;;;;;;;;;5101682;28;20548;-73
2021/03/23 12:37:19;;;;;;;29.65;19.95;;;;;;;;;;5092779;28;20183;-76
2021/03/23 12:39:45;;;;;;;33.47;21.27;;;;;;;;;;5092127;28;20708;-74
2021/03/23 12:42:19;;;;;;;35.15;21.00;;;;;;;;;;5111177;28;20190;-73
2021/03/23 12:44:46;;;;;;;29.02;20.10;;;;;;;;;;5110613;28;20193;-74
2021/03/23 12:47:15;;;;;;;29.48;20.73;;;;;;;;;;5097189;28;20203;-75
2021/03/23 12:49:41;;;;;;;32.47;20.67;;;;;;;;;;5112240;28;20182;-73
2021/03/23 12:52:08;;;;;;;30.90;20.45;;;;;;;;;;5091027;28;20183;-73
2021/03/23 12:54:39;;;;;;;35.63;21.55;;;;;;;;;;5091373;28;20210;-74
2021/03/23 12:57:25;;;;;;;31.95;21.85;;;;;;;;;;5098124;28;20265;-72
2021/03/23 12:59:53;;;;;;;31.55;21.77;;;;;;;;;;5093751;28;20360;-73
2021/03/23 13:02:21;;;;;;;34.08;22.67;;;;;;;;;;5092455;28;20186;-76
2021/03/23 13:04:47;;;;;;;34.03;22.27;;;;;;;;;;5091490;28;20223;-75
2021/03/23 13:07:37;;;;;;;31.52;21.83;;;;;;;;;;5093192;28;20218;-74
2021/03/23 13:10:06;;;;;;;33.40;22.55;;;;;;;;;;5080511;28;20585;-75
2021/03/23 13:12:32;;;;;;;34.03;22.38;;;;;;;;;;5099923;28;20202;-74
2021/03/23 13:14:58;;;;;;;34.75;21.98;;;;;;;;;;5098535;28;20203;-76
2021/03/23 13:17:25;;;;;;;29.70;22.00;;;;;;;;;;5094236;28;20179;-76
2021/03/23 13:19:51;;;;;;;29.42;21.60;;;;;;;;;;5104530;28;20517;-75
2021/03/23 13:22:18;;;;;;;27.83;20.70;;;;;;;;;;5092838;28;20236;-74
2021/03/23 13:24:47;;;;;;;30.63;19.85;;;;;;;;;;5092374;28;20195;-74
2021/03/23 13:27:20;;;;;;;24.25;19.45;;;;;;;;;;5079266;28;20227;-73
2021/03/23 13:29:46;;;;;;;29.63;19.67;;;;;;;;;;5092527;28;20183;-75
2021/03/23 13:32:12;;;;;;;27.20;19.95;;;;;;;;;;5095780;28;20536;-75
2021/03/23 13:34:39;;;;;;;28.52;19.85;;;;;;;;;;5091010;28;20219;-75
2021/03/23 13:37:06;;;;;;;29.75;20.05;;;;;;;;;;5091649;28;20183;-74
2021/03/23 13:39:35;;;;;;;28.15;19.27;;;;;;;;;;5090810;28;20187;-76
2021/03/23 13:42:07;;;;;;;31.25;19.77;;;;;;;;;;5091754;28;20182;-73
2021/03/23 13:44:49;;;;;;;33.60;21.38;;;;;;;;;;5090379;28;20233;-74
2021/03/23 13:47:15;;;;;;;27.30;19.50;;;;;;;;;;5091212;28;20226;-73
2021/03/23 13:49:42;;;;;;;31.30;20.70;;;;;;;;;;5090882;28;20171;-73
2021/03/23 13:52:32;;;;;;;31.85;21.15;;;;;;;;;;5090345;28;20267;-73
2021/03/23 13:54:58;;;;;;;29.10;20.20;;;;;;;;;;5082644;28;20285;-75
2021/03/23 13:57:24;;;;;;;34.70;21.55;;;;;;;;;;5108029;28;20639;-74
2021/03/23 13:59:51;;;;;;;28.23;19.75;;;;;;;;;;5091029;28;20190;-73
2021/03/23 14:02:20;;;;;;;32.42;21.17;;;;;;;;;;5090338;28;20180;-74
2021/03/23 14:04:46;;;;;;;28.08;20.27;;;;;;;;;;5097044;28;20252;-74
2021/03/23 14:07:17;;;;;;;27.73;19.60;;;;;;;;;;5090387;28;20687;-74
2021/03/23 14:09:44;;;;;;;32.28;20.80;;;;;;;;;;5089510;28;20592;-73
2021/03/23 14:12:12;;;;;;;27.33;19.40;;;;;;;;;;5106660;28;20328;-76
2021/03/23 14:14:39;;;;;;;27.08;18.77;;;;;;;;;;5096143;28;20690;-74
2021/03/23 14:17:07;;;;;;;27.50;18.77;;;;;;;;;;5092415;28;20179;-73
2021/03/23 14:19:33;;;;;;;24.90;17.95;;;;;;;;;;5090976;28;20207;-75
2021/03/23 14:21:59;;;;;;;25.58;16.52;;;;;;;;;;5107837;28;20267;-75
2021/03/23 14:24:25;;;;;;;27.38;19.65;;;;;;;;;;5087997;28;20221;-75
2021/03/23 14:26:51;;;;;;;30.58;19.85;;;;;;;;;;5090101;28;20211;-75
2021/03/23 14:29:17;;;;;;;28.75;20.10;;;;;;;;;;5092574;28;20262;-74
2021/03/23 14:31:43;;;;;;;27.15;19.88;;;;;;;;;;5094399;28;20201;-74
2021/03/23 14:34:09;;;;;;;25.42;18.15;;;;;;;;;;5089274;28;20294;-73
2021/03/23 14:36:35;;;;;;;20.15;13.95;;;;;;;;;;5089973;28;20191;-74
2021/03/23 14:39:04;;;;;;;15.48;12.85;;;;;;;;;;5090311;28;20184;-73
2021/03/23 14:41:34;;;;;;;19.92;14.23;;;;;;;;;;5099655;28;20248;-73
2021/03/23 14:44:00;;;;;;;23.75;15.45;;;;;;;;;;5099577;28;20204;-75